Romulus, MI (48174)

2:07 AM EST on February 23, 2017 (GMT -0500)
Near I-94/275 | | Change Station

Elev 679 ft 42.22 °N, 83.40 °W | Updated 11 seconds ago

Mostly Cloudy
Mostly Cloudy
55.6 °F
Feels Like 55.6 °F
N
0.0
Wind Variable Wind from SSW
Gusts 4.0 mph

Today
High -- | Low -- °F
--% Chance of Precip.
Yesterday
High -- | Low -- °F
Precip. -- in
Pressure 29.68 in
Visibility 2.5 miles
Clouds Scattered Clouds 2000 ft
Mostly Cloudy 4500 ft
Mostly Cloudy 20000 ft
Dew Point 53 °F
Humidity 92%
Rainfall 0.00 in
Snow Depth Not available.
7:17 AM 6:16 PM
Waning Crescent, 12% visible
METAR KDTW 230653Z 19008KT 2 1/2SM BR SCT020 BKN045 BKN200 12/11 A2968 RMK AO2 TWR VIS 4 SLP050 T01170111
Pressure 29.68 in
Visibility 2.5 miles
Clouds Scattered Clouds 2000 ft
Mostly Cloudy 4500 ft
Mostly Cloudy 20000 ft
Dew Point 53 °F
Humidity 92%
Rainfall 0.00 in
Snow Depth Not available.
7:17 AM 6:16 PM
Waning Crescent, 12% visible
METAR KDTW 230653Z 19008KT 2 1/2SM BR SCT020 BKN045 BKN200 12/11 A2968 RMK AO2 TWR VIS 4 SLP050 T01170111

Get Your Daily Forecast Email!

Thanks for signing up!

Be on the lookout for a verification email in your inbox.

You'll start receiving the daily forecast at 8 AM.

×

10-Day Weather Forecast

Almanac

Astronomy

Feb. 23, 2017 Rise Set
Actual Time
Civil Twilight
Nautical Twilight
Astronomical Twilight
Moon
Length of Visible Light
Length of Day
Tomorrow will be .
, % of the Moon is Illuminated

Today's Extremes

State Highs State Lows

Community

WunderPhotos

Upload Photos

1,962,540 photos uploaded!

WunderBlog® & News

Nearby

Air Quality

  Air Quality AQ Index Pollutant
Not available.

Snow Depth

Station Depth Elevation

Earthquake Activity

City Distance Mag. Time & Date
Minimum magnitude displayed is 2.5.

Coastal Water Temperatures

Place Temperature

Stations

Nearby Weather Stations

Station Location Temp. Windchill Dew Point Humidity Wind Precip. Elev Updated Type
                   

Watches & Warnings

There are currently no watches in effect.